Bokoshe, OK

2:35 AM CDT on August 02, 2014 (GMT -0500)
Stigler (KGZL) Elev 600 ft | 35.29 °N, 95.09 °W | Change Station

Current weather conditions updated 20 minutes ago

Mostly Cloudy
Mostly Cloudy
66 °F
Feels Like 66 °F
N
0
Wind Variable Wind from North

Today is forecast to be Warmer than yesterday.

Today
High -- | Low -- °F
--% Chance of Precip.
Yesterday
High -- | Low -- °F
Precip. -- in
6:29 AM 8:21 PM
Waxing Crescent, 33% visible
Pressure 30.08 in
Visibility 5.0 miles
Clouds Mostly Cloudy 4600 ft
Dew Point 66 °F
Humidity 100%
Rainfall 0.01 in
Snow Depth Not available.
UV 0 out of 12
Pollen 4.60 out of 12
Air Quality Not available.
Flu Activity Not available.
METAR KGZL 020715Z AUTO 00000KT 5SM BR BKN046 19/19 A3008 RMK AO2

More Conditions Fewer Conditions

Pressure 30.08 in
Visibility 5.0 miles
Clouds Mostly Cloudy 4600 ft
Dew Point 66 °F
Humidity 100%
Rainfall 0.01 in
Snow Depth Not available.
UV 0 out of 12
Pollen 4.60 out of 12
Air Quality Not available.
Flu Activity Not available.
METAR KGZL 020715Z AUTO 00000KT 5SM BR BKN046 19/19 A3008 RMK AO2

More Conditions Fewer Conditions

10-Day Weather Forecast

Almanac

Astronomy

Aug. 02, 2014 Rise Set
Actual Time 6:29 AM CDT 8:21 PM CDT
Civil Twilight 6:01 AM CDT 8:49 PM CDT
Nautical Twilight 5:27 AM CDT 9:22 PM CDT
Astronomical Twilight 4:51 AM CDT 9:58 PM CDT
Moon 12:35 PM CDT 11:57 PM CDT
Length of Visible Light 14h 47m
Length of Day
13h 52m
Tomorrow will be 1m 42s shorter.
Waxing Crescent, 33% of the Moon is Illuminated
Today
Waxing Crescent
Aug 3
First Quarter
Aug 10
Full
Aug 17
Last Quarter
Aug 25
New

Today's Extremes

State Highs State Lows

Community

WunderPhotos

Upload Photos

1,739,837 photos uploaded!

Nearby

Snow Depth

Station Depth Elevation
No new snow has been reported.

Earthquake Activity

City Distance Mag. Time & Date
No recent earthquake activity has been reported nearby.
Minimum magnitude displayed is 2.5.

Coastal Water Temperatures

Place Temperature
No Stations Reporting

Nearby Weather Stations

Station Location Temp. Dew Point Humidity Wind Precip. Elev Updated Type
LCEM - LeFlore County EOC, Poteau, OK 65.0 °F 64 °F 96% West  at  0.0 mph 0.00 in / hr 509 ft 2:35 AM CDT Rapid Fire
LCEM -Howe Middle School, Howe, OK 65.5 °F 65 °F 97% SSW  at  0.0 mph 0.00 in / hr 535 ft 2:35 AM CDT Rapid Fire
HADS ARKANSAS RIVER AT WISTER D. MAYO OK, Spiro, OK 69 °F 69 °F 100% North  at  0 mph 0.00 in / hr 422 ft 1:00 AM CDT MADIS
LCEM - Pocola City Hall, Pocola, OK 65.1 °F 64 °F 97% East  at  0.0 mph 0.00 in / hr 459 ft 2:35 AM CDT Rapid Fire
MesoWest MULDRO , Roland, OK 69 °F - - North  at  - 0.00 in / hr 509 ft 1:20 AM CDT MADIS
MesoWest VIANN , Vian, OK 68 °F - - North  at  - 0.00 in / hr 518 ft 1:20 AM CDT MADIS

Show More Stations Show Fewer Stations